sensor_id;sensor_type;location;lat;lon;timestamp;P1;durP1;ratioP1;P2;durP2;ratioP2
21032;SDS011;10675;47.976;7.824;2023-03-14T00:00:05;0.30;;;0.30;;
21032;SDS011;10675;47.976;7.824;2023-03-14T00:02:36;0.77;;;0.30;;
21032;SDS011;10675;47.976;7.824;2023-03-14T00:05:02;0.27;;;0.27;;
21032;SDS011;10675;47.976;7.824;2023-03-14T00:07:31;0.20;;;0.20;;
21032;SDS011;10675;47.976;7.824;2023-03-14T00:10:02;0.30;;;0.30;;
21032;SDS011;10675;47.976;7.824;2023-03-14T00:12:35;0.33;;;0.30;;
21032;SDS011;10675;47.976;7.824;2023-03-14T00:15:01;0.37;;;0.17;;
21032;SDS011;10675;47.976;7.824;2023-03-14T00:17:28;0.30;;;0.30;;
21032;SDS011;10675;47.976;7.824;2023-03-14T00:19:54;0.33;;;0.33;;
21032;SDS011;10675;47.976;7.824;2023-03-14T00:22:20;0.30;;;0.30;;
21032;SDS011;10675;47.976;7.824;2023-03-14T00:24:46;0.20;;;0.20;;
21032;SDS011;10675;47.976;7.824;2023-03-14T00:27:12;0.20;;;0.20;;
21032;SDS011;10675;47.976;7.824;2023-03-14T00:29:38;0.33;;;0.33;;
21032;SDS011;10675;47.976;7.824;2023-03-14T00:32:03;0.23;;;0.23;;
21032;SDS011;10675;47.976;7.824;2023-03-14T00:34:29;0.27;;;0.27;;
21032;SDS011;10675;47.976;7.824;2023-03-14T00:36:56;0.30;;;0.30;;
21032;SDS011;10675;47.976;7.824;2023-03-14T00:39:22;0.47;;;0.47;;
21032;SDS011;10675;47.976;7.824;2023-03-14T00:41:47;0.13;;;0.13;;
21032;SDS011;10675;47.976;7.824;2023-03-14T00:44:13;0.27;;;0.27;;
21032;SDS011;10675;47.976;7.824;2023-03-14T00:46:38;2.00;;;0.40;;
21032;SDS011;10675;47.976;7.824;2023-03-14T00:49:04;0.23;;;0.23;;
21032;SDS011;10675;47.976;7.824;2023-03-14T00:51:29;0.73;;;0.40;;
21032;SDS011;10675;47.976;7.824;2023-03-14T00:53:55;1.00;;;0.30;;
21032;SDS011;10675;47.976;7.824;2023-03-14T00:56:20;0.30;;;0.30;;
21032;SDS011;10675;47.976;7.824;2023-03-14T00:58:46;0.20;;;0.20;;
21032;SDS011;10675;47.976;7.824;2023-03-14T01:01:16;0.30;;;0.30;;
21032;SDS011;10675;47.976;7.824;2023-03-14T01:03:43;0.40;;;0.40;;
21032;SDS011;10675;47.976;7.824;2023-03-14T01:06:14;0.20;;;0.20;;
21032;SDS011;10675;47.976;7.824;2023-03-14T01:08:41;1.63;;;0.50;;
21032;SDS011;10675;47.976;7.824;2023-03-14T01:11:08;1.43;;;0.20;;
21032;SDS011;10675;47.976;7.824;2023-03-14T01:13:36;0.30;;;0.30;;
21032;SDS011;10675;47.976;7.824;2023-03-14T01:16:05;0.60;;;0.40;;
21032;SDS011;10675;47.976;7.824;2023-03-14T01:18:33;0.73;;;0.30;;
21032;SDS011;10675;47.976;7.824;2023-03-14T01:21:00;0.50;;;0.40;;
21032;SDS011;10675;47.976;7.824;2023-03-14T01:23:26;0.63;;;0.37;;
21032;SDS011;10675;47.976;7.824;2023-03-14T01:25:52;0.40;;;0.40;;
21032;SDS011;10675;47.976;7.824;2023-03-14T01:28:17;0.60;;;0.40;;
21032;SDS011;10675;47.976;7.824;2023-03-14T01:30:43;0.60;;;0.60;;
21032;SDS011;10675;47.976;7.824;2023-03-14T01:33:08;0.30;;;0.30;;
21032;SDS011;10675;47.976;7.824;2023-03-14T01:35:34;1.27;;;0.43;;
21032;SDS011;10675;47.976;7.824;2023-03-14T01:37:59;3.63;;;0.60;;
21032;SDS011;10675;47.976;7.824;2023-03-14T01:40:25;0.60;;;0.57;;
21032;SDS011;10675;47.976;7.824;2023-03-14T01:42:57;0.63;;;0.30;;
21032;SDS011;10675;47.976;7.824;2023-03-14T01:48:21;1.63;;;0.47;;
21032;SDS011;10675;47.976;7.824;2023-03-14T01:50:46;2.10;;;0.60;;
21032;SDS011;10675;47.976;7.824;2023-03-14T01:53:12;0.67;;;0.57;;
21032;SDS011;10675;47.976;7.824;2023-03-14T01:55:38;0.33;;;0.33;;
21032;SDS011;10675;47.976;7.824;2023-03-14T01:58:04;2.47;;;0.47;;
21032;SDS011;10675;47.976;7.824;2023-03-14T02:00:30;0.50;;;0.50;;
21032;SDS011;10675;47.976;7.824;2023-03-14T02:03:01;1.87;;;0.60;;
21032;SDS011;10675;47.976;7.824;2023-03-14T02:05:32;2.60;;;0.60;;
21032;SDS011;10675;47.976;7.824;2023-03-14T02:08:00;0.33;;;0.33;;
21032;SDS011;10675;47.976;7.824;2023-03-14T02:12:55;1.37;;;0.60;;
21032;SDS011;10675;47.976;7.824;2023-03-14T02:15:24;1.97;;;0.70;;
21032;SDS011;10675;47.976;7.824;2023-03-14T02:17:49;1.13;;;0.47;;
21032;SDS011;10675;47.976;7.824;2023-03-14T02:22:47;1.70;;;0.50;;
21032;SDS011;10675;47.976;7.824;2023-03-14T02:28:07;0.40;;;0.40;;
21032;SDS011;10675;47.976;7.824;2023-03-14T02:30:33;0.50;;;0.50;;
21032;SDS011;10675;47.976;7.824;2023-03-14T02:33:04;0.83;;;0.47;;
21032;SDS011;10675;47.976;7.824;2023-03-14T02:35:51;1.33;;;0.50;;
21032;SDS011;10675;47.976;7.824;2023-03-14T02:38:29;0.43;;;0.37;;
21032;SDS011;10675;47.976;7.824;2023-03-14T02:40:58;0.50;;;0.47;;
21032;SDS011;10675;47.976;7.824;2023-03-14T02:43:23;0.40;;;0.40;;
21032;SDS011;10675;47.976;7.824;2023-03-14T02:45:50;0.87;;;0.60;;
21032;SDS011;10675;47.976;7.824;2023-03-14T02:48:26;0.57;;;0.57;;
21032;SDS011;10675;47.976;7.824;2023-03-14T02:50:57;1.80;;;0.47;;
21032;SDS011;10675;47.976;7.824;2023-03-14T02:53:26;1.47;;;0.50;;
21032;SDS011;10675;47.976;7.824;2023-03-14T02:55:54;0.43;;;0.43;;
21032;SDS011;10675;47.976;7.824;2023-03-14T02:58:20;0.30;;;0.30;;
21032;SDS011;10675;47.976;7.824;2023-03-14T03:00:46;1.33;;;0.43;;
21032;SDS011;10675;47.976;7.824;2023-03-14T03:03:12;0.60;;;0.40;;
21032;SDS011;10675;47.976;7.824;2023-03-14T03:05:38;0.60;;;0.60;;
21032;SDS011;10675;47.976;7.824;2023-03-14T03:08:04;0.47;;;0.30;;
21032;SDS011;10675;47.976;7.824;2023-03-14T03:10:30;0.77;;;0.50;;
21032;SDS011;10675;47.976;7.824;2023-03-14T03:12:56;0.97;;;0.50;;
21032;SDS011;10675;47.976;7.824;2023-03-14T03:15:21;0.60;;;0.43;;
21032;SDS011;10675;47.976;7.824;2023-03-14T03:17:47;0.67;;;0.50;;
21032;SDS011;10675;47.976;7.824;2023-03-14T03:20:13;1.43;;;0.60;;
21032;SDS011;10675;47.976;7.824;2023-03-14T03:22:38;1.83;;;0.60;;
21032;SDS011;10675;47.976;7.824;2023-03-14T03:25:05;3.10;;;0.73;;
21032;SDS011;10675;47.976;7.824;2023-03-14T03:27:31;1.10;;;0.30;;
21032;SDS011;10675;47.976;7.824;2023-03-14T03:29:58;0.43;;;0.33;;
21032;SDS011;10675;47.976;7.824;2023-03-14T03:32:24;0.87;;;0.43;;
21032;SDS011;10675;47.976;7.824;2023-03-14T03:34:49;3.73;;;0.73;;
21032;SDS011;10675;47.976;7.824;2023-03-14T03:37:15;0.70;;;0.70;;
21032;SDS011;10675;47.976;7.824;2023-03-14T03:39:41;0.33;;;0.33;;
21032;SDS011;10675;47.976;7.824;2023-03-14T03:42:06;2.57;;;0.57;;
21032;SDS011;10675;47.976;7.824;2023-03-14T03:44:32;0.37;;;0.30;;
21032;SDS011;10675;47.976;7.824;2023-03-14T03:46:58;1.40;;;0.50;;
21032;SDS011;10675;47.976;7.824;2023-03-14T03:49:23;1.43;;;0.63;;
21032;SDS011;10675;47.976;7.824;2023-03-14T03:51:49;1.40;;;0.50;;
21032;SDS011;10675;47.976;7.824;2023-03-14T03:54:14;0.23;;;0.23;;
21032;SDS011;10675;47.976;7.824;2023-03-14T03:56:40;1.73;;;0.47;;
21032;SDS011;10675;47.976;7.824;2023-03-14T03:59:05;0.27;;;0.27;;
21032;SDS011;10675;47.976;7.824;2023-03-14T04:01:31;0.93;;;0.47;;
21032;SDS011;10675;47.976;7.824;2023-03-14T04:03:56;0.43;;;0.30;;
21032;SDS011;10675;47.976;7.824;2023-03-14T04:06:22;0.30;;;0.30;;
21032;SDS011;10675;47.976;7.824;2023-03-14T04:08:47;2.27;;;0.37;;
21032;SDS011;10675;47.976;7.824;2023-03-14T04:11:13;0.97;;;0.50;;
21032;SDS011;10675;47.976;7.824;2023-03-14T04:13:38;0.23;;;0.23;;
21032;SDS011;10675;47.976;7.824;2023-03-14T04:16:08;1.10;;;0.30;;
21032;SDS011;10675;47.976;7.824;2023-03-14T04:18:42;1.77;;;0.40;;
21032;SDS011;10675;47.976;7.824;2023-03-14T04:21:07;1.63;;;0.50;;
21032;SDS011;10675;47.976;7.824;2023-03-14T04:23:33;0.40;;;0.40;;
21032;SDS011;10675;47.976;7.824;2023-03-14T04:25:58;1.27;;;0.30;;
21032;SDS011;10675;47.976;7.824;2023-03-14T04:28:24;1.20;;;0.43;;
21032;SDS011;10675;47.976;7.824;2023-03-14T04:30:50;0.40;;;0.40;;
21032;SDS011;10675;47.976;7.824;2023-03-14T04:33:15;2.30;;;0.43;;
21032;SDS011;10675;47.976;7.824;2023-03-14T04:35:44;1.10;;;0.37;;
21032;SDS011;10675;47.976;7.824;2023-03-14T04:38:10;0.37;;;0.33;;
21032;SDS011;10675;47.976;7.824;2023-03-14T04:40:37;2.37;;;0.43;;
21032;SDS011;10675;47.976;7.824;2023-03-14T04:43:03;0.50;;;0.50;;
21032;SDS011;10675;47.976;7.824;2023-03-14T04:45:28;0.40;;;0.30;;
21032;SDS011;10675;47.976;7.824;2023-03-14T04:47:54;0.27;;;0.27;;
21032;SDS011;10675;47.976;7.824;2023-03-14T04:50:19;0.70;;;0.60;;
21032;SDS011;10675;47.976;7.824;2023-03-14T04:52:45;0.20;;;0.20;;
21032;SDS011;10675;47.976;7.824;2023-03-14T04:55:10;0.77;;;0.50;;
21032;SDS011;10675;47.976;7.824;2023-03-14T04:57:36;0.30;;;0.30;;
21032;SDS011;10675;47.976;7.824;2023-03-14T05:00:02;0.43;;;0.30;;
21032;SDS011;10675;47.976;7.824;2023-03-14T05:02:32;0.57;;;0.43;;
21032;SDS011;10675;47.976;7.824;2023-03-14T05:04:58;0.17;;;0.17;;
21032;SDS011;10675;47.976;7.824;2023-03-14T05:07:23;0.30;;;0.30;;
21032;SDS011;10675;47.976;7.824;2023-03-14T05:09:49;0.43;;;0.40;;
21032;SDS011;10675;47.976;7.824;2023-03-14T05:12:14;0.20;;;0.20;;
21032;SDS011;10675;47.976;7.824;2023-03-14T05:14:40;0.30;;;0.30;;
21032;SDS011;10675;47.976;7.824;2023-03-14T05:17:05;0.30;;;0.27;;
21032;SDS011;10675;47.976;7.824;2023-03-14T05:19:31;0.50;;;0.40;;
21032;SDS011;10675;47.976;7.824;2023-03-14T05:21:57;0.30;;;0.30;;
21032;SDS011;10675;47.976;7.824;2023-03-14T05:24:22;0.30;;;0.30;;
21032;SDS011;10675;47.976;7.824;2023-03-14T05:26:48;2.47;;;0.43;;
21032;SDS011;10675;47.976;7.824;2023-03-14T05:29:13;1.87;;;0.57;;
21032;SDS011;10675;47.976;7.824;2023-03-14T05:31:39;0.43;;;0.30;;
21032;SDS011;10675;47.976;7.824;2023-03-14T05:34:04;1.60;;;0.37;;
21032;SDS011;10675;47.976;7.824;2023-03-14T05:36:30;0.73;;;0.30;;
21032;SDS011;10675;47.976;7.824;2023-03-14T05:38:56;1.77;;;0.37;;
21032;SDS011;10675;47.976;7.824;2023-03-14T05:41:21;0.20;;;0.20;;
21032;SDS011;10675;47.976;7.824;2023-03-14T05:43:47;0.30;;;0.30;;
21032;SDS011;10675;47.976;7.824;2023-03-14T05:46:12;0.53;;;0.50;;
21032;SDS011;10675;47.976;7.824;2023-03-14T05:48:38;0.63;;;0.30;;
21032;SDS011;10675;47.976;7.824;2023-03-14T05:51:04;0.37;;;0.37;;
21032;SDS011;10675;47.976;7.824;2023-03-14T05:53:30;0.30;;;0.30;;
21032;SDS011;10675;47.976;7.824;2023-03-14T05:55:55;0.53;;;0.30;;
21032;SDS011;10675;47.976;7.824;2023-03-14T05:58:21;0.83;;;0.33;;
21032;SDS011;10675;47.976;7.824;2023-03-14T06:00:47;0.50;;;0.50;;
21032;SDS011;10675;47.976;7.824;2023-03-14T06:03:13;0.37;;;0.37;;
21032;SDS011;10675;47.976;7.824;2023-03-14T06:05:38;0.53;;;0.30;;
21032;SDS011;10675;47.976;7.824;2023-03-14T06:08:04;0.10;;;0.10;;
21032;SDS011;10675;47.976;7.824;2023-03-14T06:10:29;0.30;;;0.30;;
21032;SDS011;10675;47.976;7.824;2023-03-14T06:12:55;0.83;;;0.23;;
21032;SDS011;10675;47.976;7.824;2023-03-14T06:15:20;0.17;;;0.17;;
21032;SDS011;10675;47.976;7.824;2023-03-14T06:17:46;0.30;;;0.30;;
21032;SDS011;10675;47.976;7.824;2023-03-14T06:20:12;0.20;;;0.20;;
21032;SDS011;10675;47.976;7.824;2023-03-14T06:22:38;0.20;;;0.20;;
21032;SDS011;10675;47.976;7.824;2023-03-14T06:25:04;2.10;;;0.30;;
21032;SDS011;10675;47.976;7.824;2023-03-14T06:27:31;0.30;;;0.30;;
21032;SDS011;10675;47.976;7.824;2023-03-14T06:29:56;0.87;;;0.30;;
21032;SDS011;10675;47.976;7.824;2023-03-14T06:32:22;0.50;;;0.50;;
21032;SDS011;10675;47.976;7.824;2023-03-14T06:34:48;0.17;;;0.17;;
21032;SDS011;10675;47.976;7.824;2023-03-14T06:37:13;1.50;;;0.40;;
21032;SDS011;10675;47.976;7.824;2023-03-14T06:39:39;0.23;;;0.23;;
21032;SDS011;10675;47.976;7.824;2023-03-14T06:42:05;1.53;;;0.50;;
21032;SDS011;10675;47.976;7.824;2023-03-14T06:44:30;0.30;;;0.30;;
21032;SDS011;10675;47.976;7.824;2023-03-14T06:46:56;0.87;;;0.50;;
21032;SDS011;10675;47.976;7.824;2023-03-14T06:49:21;1.90;;;0.60;;
21032;SDS011;10675;47.976;7.824;2023-03-14T06:51:47;0.63;;;0.30;;
21032;SDS011;10675;47.976;7.824;2023-03-14T06:54:12;0.33;;;0.20;;
21032;SDS011;10675;47.976;7.824;2023-03-14T06:56:38;1.17;;;0.30;;
21032;SDS011;10675;47.976;7.824;2023-03-14T06:59:03;0.30;;;0.30;;
21032;SDS011;10675;47.976;7.824;2023-03-14T07:01:29;0.40;;;0.40;;
21032;SDS011;10675;47.976;7.824;2023-03-14T07:03:57;0.70;;;0.30;;
21032;SDS011;10675;47.976;7.824;2023-03-14T07:06:23;1.60;;;0.40;;
21032;SDS011;10675;47.976;7.824;2023-03-14T07:08:49;0.20;;;0.20;;
21032;SDS011;10675;47.976;7.824;2023-03-14T07:11:14;0.40;;;0.40;;
21032;SDS011;10675;47.976;7.824;2023-03-14T07:13:40;0.53;;;0.40;;
21032;SDS011;10675;47.976;7.824;2023-03-14T07:16:06;0.40;;;0.20;;
21032;SDS011;10675;47.976;7.824;2023-03-14T07:18:32;0.20;;;0.20;;
21032;SDS011;10675;47.976;7.824;2023-03-14T07:20:57;0.33;;;0.30;;
21032;SDS011;10675;47.976;7.824;2023-03-14T07:23:23;0.30;;;0.30;;
21032;SDS011;10675;47.976;7.824;2023-03-14T07:25:49;0.33;;;0.23;;
21032;SDS011;10675;47.976;7.824;2023-03-14T07:28:16;0.20;;;0.20;;
21032;SDS011;10675;47.976;7.824;2023-03-14T07:30:41;0.30;;;0.30;;
21032;SDS011;10675;47.976;7.824;2023-03-14T07:33:07;0.40;;;0.27;;
21032;SDS011;10675;47.976;7.824;2023-03-14T07:35:33;0.40;;;0.40;;
21032;SDS011;10675;47.976;7.824;2023-03-14T07:37:58;0.10;;;0.10;;
21032;SDS011;10675;47.976;7.824;2023-03-14T07:40:24;0.30;;;0.30;;
21032;SDS011;10675;47.976;7.824;2023-03-14T07:42:49;0.43;;;0.30;;
21032;SDS011;10675;47.976;7.824;2023-03-14T07:45:15;0.67;;;0.30;;
21032;SDS011;10675;47.976;7.824;2023-03-14T07:47:41;0.27;;;0.27;;
21032;SDS011;10675;47.976;7.824;2023-03-14T07:50:06;0.40;;;0.30;;
21032;SDS011;10675;47.976;7.824;2023-03-14T07:52:33;0.30;;;0.30;;
21032;SDS011;10675;47.976;7.824;2023-03-14T07:54:58;0.30;;;0.30;;
21032;SDS011;10675;47.976;7.824;2023-03-14T07:57:24;0.53;;;0.30;;
21032;SDS011;10675;47.976;7.824;2023-03-14T07:59:49;1.33;;;0.30;;
21032;SDS011;10675;47.976;7.824;2023-03-14T08:02:15;0.40;;;0.40;;
21032;SDS011;10675;47.976;7.824;2023-03-14T08:04:41;0.17;;;0.17;;
21032;SDS011;10675;47.976;7.824;2023-03-14T08:07:06;0.37;;;0.37;;
21032;SDS011;10675;47.976;7.824;2023-03-14T08:09:32;0.17;;;0.17;;
21032;SDS011;10675;47.976;7.824;2023-03-14T08:11:58;0.20;;;0.20;;
21032;SDS011;10675;47.976;7.824;2023-03-14T08:14:23;0.87;;;0.30;;
21032;SDS011;10675;47.976;7.824;2023-03-14T08:16:49;0.60;;;0.50;;
21032;SDS011;10675;47.976;7.824;2023-03-14T08:19:15;0.27;;;0.27;;
21032;SDS011;10675;47.976;7.824;2023-03-14T08:21:41;0.73;;;0.40;;
21032;SDS011;10675;47.976;7.824;2023-03-14T08:24:06;0.20;;;0.20;;
21032;SDS011;10675;47.976;7.824;2023-03-14T08:26:32;0.43;;;0.40;;
21032;SDS011;10675;47.976;7.824;2023-03-14T08:28:57;0.23;;;0.20;;
21032;SDS011;10675;47.976;7.824;2023-03-14T08:31:23;1.13;;;0.30;;
21032;SDS011;10675;47.976;7.824;2023-03-14T08:33:48;0.97;;;0.33;;
21032;SDS011;10675;47.976;7.824;2023-03-14T08:36:16;0.20;;;0.20;;
21032;SDS011;10675;47.976;7.824;2023-03-14T08:38:42;1.90;;;0.50;;
21032;SDS011;10675;47.976;7.824;2023-03-14T08:41:08;0.30;;;0.30;;
21032;SDS011;10675;47.976;7.824;2023-03-14T08:43:34;0.30;;;0.30;;
21032;SDS011;10675;47.976;7.824;2023-03-14T08:46:00;0.40;;;0.40;;
21032;SDS011;10675;47.976;7.824;2023-03-14T08:48:26;0.53;;;0.53;;
21032;SDS011;10675;47.976;7.824;2023-03-14T08:50:54;0.33;;;0.33;;
21032;SDS011;10675;47.976;7.824;2023-03-14T08:53:20;0.40;;;0.40;;
21032;SDS011;10675;47.976;7.824;2023-03-14T08:55:47;0.33;;;0.30;;
21032;SDS011;10675;47.976;7.824;2023-03-14T08:58:17;0.40;;;0.40;;
21032;SDS011;10675;47.976;7.824;2023-03-14T09:00:42;0.50;;;0.40;;
21032;SDS011;10675;47.976;7.824;2023-03-14T09:03:07;0.70;;;0.40;;
21032;SDS011;10675;47.976;7.824;2023-03-14T09:05:33;0.30;;;0.30;;
21032;SDS011;10675;47.976;7.824;2023-03-14T09:07:59;0.30;;;0.30;;
21032;SDS011;10675;47.976;7.824;2023-03-14T09:10:25;0.30;;;0.30;;
21032;SDS011;10675;47.976;7.824;2023-03-14T09:12:50;0.20;;;0.20;;
21032;SDS011;10675;47.976;7.824;2023-03-14T09:15:16;0.30;;;0.30;;
21032;SDS011;10675;47.976;7.824;2023-03-14T09:17:42;0.30;;;0.30;;
21032;SDS011;10675;47.976;7.824;2023-03-14T09:20:09;0.27;;;0.27;;
21032;SDS011;10675;47.976;7.824;2023-03-14T09:22:35;0.20;;;0.20;;
21032;SDS011;10675;47.976;7.824;2023-03-14T09:25:02;0.30;;;0.30;;
21032;SDS011;10675;47.976;7.824;2023-03-14T09:27:28;0.30;;;0.30;;
21032;SDS011;10675;47.976;7.824;2023-03-14T09:29:54;0.27;;;0.20;;
21032;SDS011;10675;47.976;7.824;2023-03-14T09:32:19;0.20;;;0.20;;
21032;SDS011;10675;47.976;7.824;2023-03-14T09:34:45;0.20;;;0.20;;
21032;SDS011;10675;47.976;7.824;2023-03-14T09:37:10;0.20;;;0.20;;
21032;SDS011;10675;47.976;7.824;2023-03-14T09:39:36;0.50;;;0.40;;
21032;SDS011;10675;47.976;7.824;2023-03-14T09:42:02;0.20;;;0.20;;
21032;SDS011;10675;47.976;7.824;2023-03-14T09:44:32;0.20;;;0.20;;
21032;SDS011;10675;47.976;7.824;2023-03-14T09:47:00;0.97;;;0.30;;
21032;SDS011;10675;47.976;7.824;2023-03-14T09:49:31;0.20;;;0.20;;
21032;SDS011;10675;47.976;7.824;2023-03-14T09:52:00;0.53;;;0.40;;
21032;SDS011;10675;47.976;7.824;2023-03-14T09:54:31;0.20;;;0.20;;
21032;SDS011;10675;47.976;7.824;2023-03-14T09:56:57;0.40;;;0.30;;
21032;SDS011;10675;47.976;7.824;2023-03-14T09:59:22;0.27;;;0.27;;
21032;SDS011;10675;47.976;7.824;2023-03-14T10:01:48;0.20;;;0.20;;
21032;SDS011;10675;47.976;7.824;2023-03-14T10:04:14;0.20;;;0.20;;
21032;SDS011;10675;47.976;7.824;2023-03-14T10:06:42;0.20;;;0.20;;
21032;SDS011;10675;47.976;7.824;2023-03-14T10:09:14;0.20;;;0.20;;
21032;SDS011;10675;47.976;7.824;2023-03-14T10:11:49;0.20;;;0.20;;
21032;SDS011;10675;47.976;7.824;2023-03-14T10:14:30;0.20;;;0.20;;
21032;SDS011;10675;47.976;7.824;2023-03-14T10:17:37;0.50;;;0.40;;
21032;SDS011;10675;47.976;7.824;2023-03-14T10:19:59;0.20;;;0.20;;
21032;SDS011;10675;47.976;7.824;2023-03-14T10:22:26;0.10;;;0.10;;
21032;SDS011;10675;47.976;7.824;2023-03-14T10:24:56;0.20;;;0.20;;
21032;SDS011;10675;47.976;7.824;2023-03-14T10:27:29;0.20;;;0.20;;
21032;SDS011;10675;47.976;7.824;2023-03-14T10:29:58;0.10;;;0.10;;
21032;SDS011;10675;47.976;7.824;2023-03-14T10:32:33;0.70;;;0.30;;
21032;SDS011;10675;47.976;7.824;2023-03-14T10:37:51;0.10;;;0.10;;
21032;SDS011;10675;47.976;7.824;2023-03-14T10:40:19;0.20;;;0.20;;
21032;SDS011;10675;47.976;7.824;2023-03-14T10:42:49;0.20;;;0.20;;
21032;SDS011;10675;47.976;7.824;2023-03-14T10:48:39;0.40;;;0.27;;
21032;SDS011;10675;47.976;7.824;2023-03-14T10:53:38;0.10;;;0.10;;
21032;SDS011;10675;47.976;7.824;2023-03-14T10:56:18;0.10;;;0.10;;
21032;SDS011;10675;47.976;7.824;2023-03-14T10:58:46;0.20;;;0.20;;
21032;SDS011;10675;47.976;7.824;2023-03-14T11:01:17;0.10;;;0.10;;
21032;SDS011;10675;47.976;7.824;2023-03-14T11:06:30;0.20;;;0.20;;
21032;SDS011;10675;47.976;7.824;2023-03-14T11:09:15;0.20;;;0.20;;
21032;SDS011;10675;47.976;7.824;2023-03-14T11:11:54;0.33;;;0.33;;
21032;SDS011;10675;47.976;7.824;2023-03-14T11:14:27;0.20;;;0.20;;
21032;SDS011;10675;47.976;7.824;2023-03-14T11:17:07;0.20;;;0.20;;
21032;SDS011;10675;47.976;7.824;2023-03-14T11:20:19;0.30;;;0.30;;
21032;SDS011;10675;47.976;7.824;2023-03-14T11:23:22;0.60;;;0.50;;
21032;SDS011;10675;47.976;7.824;2023-03-14T11:25:55;0.17;;;0.17;;
21032;SDS011;10675;47.976;7.824;2023-03-14T11:28:38;0.20;;;0.20;;
21032;SDS011;10675;47.976;7.824;2023-03-14T11:36:53;0.50;;;0.40;;
21032;SDS011;10675;47.976;7.824;2023-03-14T11:39:26;2.57;;;0.40;;
21032;SDS011;10675;47.976;7.824;2023-03-14T11:42:00;0.20;;;0.20;;
21032;SDS011;10675;47.976;7.824;2023-03-14T11:44:31;0.97;;;0.20;;
21032;SDS011;10675;47.976;7.824;2023-03-14T11:49:38;0.10;;;0.10;;
21032;SDS011;10675;47.976;7.824;2023-03-14T11:52:26;0.30;;;0.30;;
21032;SDS011;10675;47.976;7.824;2023-03-14T11:57:30;0.20;;;0.20;;
21032;SDS011;10675;47.976;7.824;2023-03-14T11:59:58;0.30;;;0.30;;
21032;SDS011;10675;47.976;7.824;2023-03-14T12:10:54;0.20;;;0.20;;
21032;SDS011;10675;47.976;7.824;2023-03-14T12:13:23;0.33;;;0.30;;
21032;SDS011;10675;47.976;7.824;2023-03-14T12:15:55;0.20;;;0.20;;
21032;SDS011;10675;47.976;7.824;2023-03-14T12:18:29;0.20;;;0.20;;
21032;SDS011;10675;47.976;7.824;2023-03-14T12:20:58;0.33;;;0.33;;
21032;SDS011;10675;47.976;7.824;2023-03-14T12:23:26;0.30;;;0.30;;
21032;SDS011;10675;47.976;7.824;2023-03-14T12:26:13;0.20;;;0.20;;
21032;SDS011;10675;47.976;7.824;2023-03-14T12:28:43;0.67;;;0.20;;
21032;SDS011;10675;47.976;7.824;2023-03-14T12:41:44;0.73;;;0.30;;
21032;SDS011;10675;47.976;7.824;2023-03-14T12:46:54;0.20;;;0.20;;
21032;SDS011;10675;47.976;7.824;2023-03-14T12:49:21;0.37;;;0.37;;
21032;SDS011;10675;47.976;7.824;2023-03-14T12:52:02;0.30;;;0.30;;
21032;SDS011;10675;47.976;7.824;2023-03-14T12:54:41;0.53;;;0.40;;
21032;SDS011;10675;47.976;7.824;2023-03-14T13:03:22;0.33;;;0.33;;
21032;SDS011;10675;47.976;7.824;2023-03-14T13:11:21;0.50;;;0.50;;
21032;SDS011;10675;47.976;7.824;2023-03-14T13:13:49;0.47;;;0.40;;
21032;SDS011;10675;47.976;7.824;2023-03-14T13:16:23;1.63;;;0.30;;
21032;SDS011;10675;47.976;7.824;2023-03-14T13:18:50;0.93;;;0.43;;
21032;SDS011;10675;47.976;7.824;2023-03-14T13:21:38;0.20;;;0.20;;
21032;SDS011;10675;47.976;7.824;2023-03-14T13:24:04;0.27;;;0.27;;
21032;SDS011;10675;47.976;7.824;2023-03-14T13:26:34;1.23;;;0.50;;
21032;SDS011;10675;47.976;7.824;2023-03-14T13:31:52;0.40;;;0.40;;
21032;SDS011;10675;47.976;7.824;2023-03-14T13:34:19;0.27;;;0.27;;
21032;SDS011;10675;47.976;7.824;2023-03-14T13:36:44;0.50;;;0.50;;
21032;SDS011;10675;47.976;7.824;2023-03-14T13:39:12;0.40;;;0.40;;
21032;SDS011;10675;47.976;7.824;2023-03-14T13:41:41;0.30;;;0.30;;
21032;SDS011;10675;47.976;7.824;2023-03-14T13:44:09;0.27;;;0.20;;
21032;SDS011;10675;47.976;7.824;2023-03-14T13:46:40;0.93;;;0.50;;
21032;SDS011;10675;47.976;7.824;2023-03-14T13:49:10;1.30;;;0.30;;
21032;SDS011;10675;47.976;7.824;2023-03-14T13:51:42;0.50;;;0.50;;
21032;SDS011;10675;47.976;7.824;2023-03-14T13:54:15;1.00;;;0.40;;
21032;SDS011;10675;47.976;7.824;2023-03-14T13:56:42;0.50;;;0.50;;
21032;SDS011;10675;47.976;7.824;2023-03-14T13:59:24;1.70;;;0.40;;
21032;SDS011;10675;47.976;7.824;2023-03-14T14:01:52;0.50;;;0.40;;
21032;SDS011;10675;47.976;7.824;2023-03-14T14:04:19;1.03;;;0.50;;
21032;SDS011;10675;47.976;7.824;2023-03-14T14:06:49;0.40;;;0.40;;
21032;SDS011;10675;47.976;7.824;2023-03-14T14:09:20;2.50;;;0.82;;
21032;SDS011;10675;47.976;7.824;2023-03-14T14:11:54;1.17;;;0.70;;
21032;SDS011;10675;47.976;7.824;2023-03-14T14:14:23;1.07;;;0.73;;
21032;SDS011;10675;47.976;7.824;2023-03-14T14:17:03;4.57;;;0.70;;
21032;SDS011;10675;47.976;7.824;2023-03-14T14:19:31;3.20;;;0.80;;
21032;SDS011;10675;47.976;7.824;2023-03-14T14:21:59;1.17;;;0.67;;
21032;SDS011;10675;47.976;7.824;2023-03-14T14:24:28;0.70;;;0.70;;
21032;SDS011;10675;47.976;7.824;2023-03-14T14:27:39;0.40;;;0.40;;
21032;SDS011;10675;47.976;7.824;2023-03-14T14:29:58;0.80;;;0.53;;
21032;SDS011;10675;47.976;7.824;2023-03-14T14:32:26;0.93;;;0.50;;
21032;SDS011;10675;47.976;7.824;2023-03-14T14:34:58;0.70;;;0.63;;
21032;SDS011;10675;47.976;7.824;2023-03-14T14:37:29;0.70;;;0.70;;
21032;SDS011;10675;47.976;7.824;2023-03-14T14:39:57;0.67;;;0.60;;
21032;SDS011;10675;47.976;7.824;2023-03-14T14:42:26;0.87;;;0.80;;
21032;SDS011;10675;47.976;7.824;2023-03-14T14:44:56;0.50;;;0.40;;
21032;SDS011;10675;47.976;7.824;2023-03-14T14:47:24;0.60;;;0.60;;
21032;SDS011;10675;47.976;7.824;2023-03-14T14:49:51;1.60;;;0.57;;
21032;SDS011;10675;47.976;7.824;2023-03-14T14:57:23;0.57;;;0.57;;
21032;SDS011;10675;47.976;7.824;2023-03-14T14:59:49;2.50;;;0.77;;
21032;SDS011;10675;47.976;7.824;2023-03-14T15:02:30;1.50;;;0.70;;
21032;SDS011;10675;47.976;7.824;2023-03-14T15:04:57;2.73;;;0.90;;
21032;SDS011;10675;47.976;7.824;2023-03-14T15:07:23;1.30;;;0.47;;
21032;SDS011;10675;47.976;7.824;2023-03-14T15:09:48;0.60;;;0.60;;
21032;SDS011;10675;47.976;7.824;2023-03-14T15:12:14;0.63;;;0.40;;
21032;SDS011;10675;47.976;7.824;2023-03-14T15:14:39;2.53;;;0.60;;
21032;SDS011;10675;47.976;7.824;2023-03-14T15:17:05;1.17;;;0.77;;
21032;SDS011;10675;47.976;7.824;2023-03-14T15:19:35;3.73;;;0.90;;
21032;SDS011;10675;47.976;7.824;2023-03-14T15:22:01;1.90;;;0.83;;
21032;SDS011;10675;47.976;7.824;2023-03-14T15:24:26;0.67;;;0.53;;
21032;SDS011;10675;47.976;7.824;2023-03-14T15:26:52;1.93;;;0.80;;
21032;SDS011;10675;47.976;7.824;2023-03-14T15:29:18;2.80;;;0.90;;
21032;SDS011;10675;47.976;7.824;2023-03-14T15:31:43;3.07;;;1.00;;
21032;SDS011;10675;47.976;7.824;2023-03-14T15:34:09;0.83;;;0.83;;
21032;SDS011;10675;47.976;7.824;2023-03-14T15:36:35;1.73;;;0.83;;
21032;SDS011;10675;47.976;7.824;2023-03-14T15:39:03;2.50;;;0.77;;
21032;SDS011;10675;47.976;7.824;2023-03-14T15:41:30;3.13;;;0.77;;
21032;SDS011;10675;47.976;7.824;2023-03-14T15:43:56;1.20;;;0.60;;
21032;SDS011;10675;47.976;7.824;2023-03-14T15:46:23;3.07;;;0.70;;
21032;SDS011;10675;47.976;7.824;2023-03-14T15:48:49;0.70;;;0.70;;
21032;SDS011;10675;47.976;7.824;2023-03-14T15:51:16;1.13;;;0.40;;
21032;SDS011;10675;47.976;7.824;2023-03-14T15:53:42;2.40;;;0.98;;
21032;SDS011;10675;47.976;7.824;2023-03-14T15:56:16;0.60;;;0.60;;
21032;SDS011;10675;47.976;7.824;2023-03-14T15:58:43;3.30;;;0.87;;
21032;SDS011;10675;47.976;7.824;2023-03-14T16:01:11;0.73;;;0.60;;
21032;SDS011;10675;47.976;7.824;2023-03-14T16:03:37;2.47;;;0.80;;
21032;SDS011;10675;47.976;7.824;2023-03-14T16:06:03;2.03;;;0.87;;